sensor_id;sensor_type;location;lat;lon;timestamp;P1;durP1;ratioP1;P2;durP2;ratioP2
31018;SDS011;17689;45.610;5.858;2022-09-03T00:00:24;4.93;;;2.90;;
31018;SDS011;17689;45.610;5.858;2022-09-03T00:05:31;4.47;;;3.23;;
31018;SDS011;17689;45.610;5.858;2022-09-03T00:08:03;4.10;;;3.50;;
31018;SDS011;17689;45.610;5.858;2022-09-03T00:10:51;3.47;;;3.17;;
31018;SDS011;17689;45.610;5.858;2022-09-03T00:13:22;4.33;;;3.60;;
31018;SDS011;17689;45.610;5.858;2022-09-03T00:15:49;4.50;;;3.50;;
31018;SDS011;17689;45.610;5.858;2022-09-03T00:18:20;4.50;;;3.40;;
31018;SDS011;17689;45.610;5.858;2022-09-03T00:20:56;5.17;;;3.80;;
31018;SDS011;17689;45.610;5.858;2022-09-03T00:23:24;5.13;;;3.83;;
31018;SDS011;17689;45.610;5.858;2022-09-03T00:28:29;5.30;;;4.17;;
31018;SDS011;17689;45.610;5.858;2022-09-03T00:31:04;7.27;;;3.67;;
31018;SDS011;17689;45.610;5.858;2022-09-03T00:33:31;5.77;;;3.40;;
31018;SDS011;17689;45.610;5.858;2022-09-03T00:36:04;4.13;;;3.13;;
31018;SDS011;17689;45.610;5.858;2022-09-03T00:38:33;5.00;;;3.50;;
31018;SDS011;17689;45.610;5.858;2022-09-03T00:41:08;3.20;;;2.90;;
31018;SDS011;17689;45.610;5.858;2022-09-03T00:43:42;4.53;;;3.13;;
31018;SDS011;17689;45.610;5.858;2022-09-03T00:52:03;4.70;;;2.80;;
31018;SDS011;17689;45.610;5.858;2022-09-03T00:57:14;4.87;;;2.77;;
31018;SDS011;17689;45.610;5.858;2022-09-03T01:00:07;4.70;;;3.20;;
31018;SDS011;17689;45.610;5.858;2022-09-03T01:05:27;3.47;;;3.00;;
31018;SDS011;17689;45.610;5.858;2022-09-03T01:08:06;3.97;;;3.20;;
31018;SDS011;17689;45.610;5.858;2022-09-03T01:13:12;4.77;;;3.23;;
31018;SDS011;17689;45.610;5.858;2022-09-03T01:20:48;3.47;;;3.17;;
31018;SDS011;17689;45.610;5.858;2022-09-03T01:25:53;3.70;;;3.40;;
31018;SDS011;17689;45.610;5.858;2022-09-03T01:30:49;4.60;;;3.60;;
31018;SDS011;17689;45.610;5.858;2022-09-03T01:33:24;4.07;;;3.20;;
31018;SDS011;17689;45.610;5.858;2022-09-03T01:36:01;3.97;;;3.10;;
31018;SDS011;17689;45.610;5.858;2022-09-03T01:47:01;4.67;;;3.43;;
31018;SDS011;17689;45.610;5.858;2022-09-03T01:49:36;4.83;;;3.00;;
31018;SDS011;17689;45.610;5.858;2022-09-03T01:52:51;5.87;;;3.27;;
31018;SDS011;17689;45.610;5.858;2022-09-03T01:57:29;4.53;;;2.93;;
31018;SDS011;17689;45.610;5.858;2022-09-03T02:02:31;5.53;;;2.87;;
31018;SDS011;17689;45.610;5.858;2022-09-03T02:05:18;3.13;;;2.83;;
31018;SDS011;17689;45.610;5.858;2022-09-03T02:07:55;3.27;;;2.97;;
31018;SDS011;17689;45.610;5.858;2022-09-03T02:10:24;5.17;;;3.10;;
31018;SDS011;17689;45.610;5.858;2022-09-03T02:12:55;4.60;;;3.00;;
31018;SDS011;17689;45.610;5.858;2022-09-03T02:15:22;6.03;;;3.17;;
31018;SDS011;17689;45.610;5.858;2022-09-03T02:17:50;4.43;;;2.93;;
31018;SDS011;17689;45.610;5.858;2022-09-03T02:20:20;4.93;;;3.27;;
31018;SDS011;17689;45.610;5.858;2022-09-03T02:22:47;3.77;;;2.97;;
31018;SDS011;17689;45.610;5.858;2022-09-03T02:25:14;4.53;;;3.07;;
31018;SDS011;17689;45.610;5.858;2022-09-03T02:27:40;4.23;;;3.20;;
31018;SDS011;17689;45.610;5.858;2022-09-03T02:30:07;4.60;;;3.20;;
31018;SDS011;17689;45.610;5.858;2022-09-03T02:32:33;5.60;;;3.23;;
31018;SDS011;17689;45.610;5.858;2022-09-03T02:34:59;5.23;;;3.40;;
31018;SDS011;17689;45.610;5.858;2022-09-03T02:37:26;7.23;;;3.67;;
31018;SDS011;17689;45.610;5.858;2022-09-03T02:39:52;5.67;;;3.60;;
31018;SDS011;17689;45.610;5.858;2022-09-03T02:42:18;4.80;;;3.40;;
31018;SDS011;17689;45.610;5.858;2022-09-03T02:44:51;6.87;;;3.70;;
31018;SDS011;17689;45.610;5.858;2022-09-03T02:47:18;5.20;;;3.63;;
31018;SDS011;17689;45.610;5.858;2022-09-03T02:49:47;6.97;;;3.53;;
31018;SDS011;17689;45.610;5.858;2022-09-03T02:52:14;6.07;;;3.40;;
31018;SDS011;17689;45.610;5.858;2022-09-03T02:54:40;5.07;;;3.80;;
31018;SDS011;17689;45.610;5.858;2022-09-03T02:57:09;4.27;;;3.37;;
31018;SDS011;17689;45.610;5.858;2022-09-03T02:59:36;5.00;;;3.10;;
31018;SDS011;17689;45.610;5.858;2022-09-03T03:02:03;3.77;;;3.30;;
31018;SDS011;17689;45.610;5.858;2022-09-03T03:04:30;4.57;;;3.30;;
31018;SDS011;17689;45.610;5.858;2022-09-03T03:06:56;3.30;;;3.07;;
31018;SDS011;17689;45.610;5.858;2022-09-03T03:09:22;7.20;;;3.53;;
31018;SDS011;17689;45.610;5.858;2022-09-03T03:11:49;6.13;;;3.10;;
31018;SDS011;17689;45.610;5.858;2022-09-03T03:14:16;3.47;;;2.80;;
31018;SDS011;17689;45.610;5.858;2022-09-03T03:16:42;6.10;;;3.30;;
31018;SDS011;17689;45.610;5.858;2022-09-03T03:19:08;6.33;;;3.47;;
31018;SDS011;17689;45.610;5.858;2022-09-03T03:21:34;4.80;;;3.00;;
31018;SDS011;17689;45.610;5.858;2022-09-03T03:24:01;4.50;;;3.00;;
31018;SDS011;17689;45.610;5.858;2022-09-03T03:26:27;4.23;;;3.10;;
31018;SDS011;17689;45.610;5.858;2022-09-03T03:28:57;4.43;;;3.30;;
31018;SDS011;17689;45.610;5.858;2022-09-03T03:31:24;4.40;;;3.40;;
31018;SDS011;17689;45.610;5.858;2022-09-03T03:33:55;5.30;;;3.30;;
31018;SDS011;17689;45.610;5.858;2022-09-03T03:36:22;7.80;;;3.40;;
31018;SDS011;17689;45.610;5.858;2022-09-03T03:38:48;5.93;;;3.10;;
31018;SDS011;17689;45.610;5.858;2022-09-03T03:41:19;8.30;;;3.50;;
31018;SDS011;17689;45.610;5.858;2022-09-03T03:43:54;6.00;;;3.13;;
31018;SDS011;17689;45.610;5.858;2022-09-03T03:46:22;5.23;;;2.97;;
31018;SDS011;17689;45.610;5.858;2022-09-03T03:48:49;4.43;;;3.33;;
31018;SDS011;17689;45.610;5.858;2022-09-03T03:51:15;6.50;;;3.50;;
31018;SDS011;17689;45.610;5.858;2022-09-03T03:53:42;5.40;;;3.00;;
31018;SDS011;17689;45.610;5.858;2022-09-03T03:56:09;7.47;;;3.17;;
31018;SDS011;17689;45.610;5.858;2022-09-03T03:58:36;8.80;;;3.53;;
31018;SDS011;17689;45.610;5.858;2022-09-03T04:01:07;5.83;;;3.17;;
31018;SDS011;17689;45.610;5.858;2022-09-03T04:03:34;4.33;;;3.00;;
31018;SDS011;17689;45.610;5.858;2022-09-03T04:06:00;4.40;;;3.17;;
31018;SDS011;17689;45.610;5.858;2022-09-03T04:08:28;5.63;;;3.20;;
31018;SDS011;17689;45.610;5.858;2022-09-03T04:10:59;4.57;;;2.87;;
31018;SDS011;17689;45.610;5.858;2022-09-03T04:13:32;5.50;;;3.20;;
31018;SDS011;17689;45.610;5.858;2022-09-03T04:16:08;4.70;;;2.80;;
31018;SDS011;17689;45.610;5.858;2022-09-03T04:18:35;4.77;;;3.13;;
31018;SDS011;17689;45.610;5.858;2022-09-03T04:21:12;7.50;;;3.30;;
31018;SDS011;17689;45.610;5.858;2022-09-03T04:23:42;4.90;;;3.07;;
31018;SDS011;17689;45.610;5.858;2022-09-03T04:26:09;3.70;;;3.40;;
31018;SDS011;17689;45.610;5.858;2022-09-03T04:28:36;3.60;;;2.60;;
31018;SDS011;17689;45.610;5.858;2022-09-03T04:31:03;5.50;;;2.90;;
31018;SDS011;17689;45.610;5.858;2022-09-03T04:33:30;6.23;;;3.13;;
31018;SDS011;17689;45.610;5.858;2022-09-03T04:36:18;3.73;;;2.80;;
31018;SDS011;17689;45.610;5.858;2022-09-03T04:38:43;7.03;;;2.97;;
31018;SDS011;17689;45.610;5.858;2022-09-03T04:41:11;4.17;;;2.87;;
31018;SDS011;17689;45.610;5.858;2022-09-03T04:43:38;3.13;;;2.80;;
31018;SDS011;17689;45.610;5.858;2022-09-03T04:46:06;5.40;;;2.80;;
31018;SDS011;17689;45.610;5.858;2022-09-03T04:48:33;3.53;;;2.63;;
31018;SDS011;17689;45.610;5.858;2022-09-03T04:51:07;5.27;;;2.90;;
31018;SDS011;17689;45.610;5.858;2022-09-03T04:53:35;3.57;;;2.63;;
31018;SDS011;17689;45.610;5.858;2022-09-03T04:56:02;5.63;;;3.43;;
31018;SDS011;17689;45.610;5.858;2022-09-03T04:58:28;3.70;;;2.93;;
31018;SDS011;17689;45.610;5.858;2022-09-03T05:00:54;5.47;;;3.17;;
31018;SDS011;17689;45.610;5.858;2022-09-03T05:03:20;4.70;;;2.90;;
31018;SDS011;17689;45.610;5.858;2022-09-03T05:05:50;5.03;;;3.10;;
31018;SDS011;17689;45.610;5.858;2022-09-03T05:08:17;6.87;;;3.10;;
31018;SDS011;17689;45.610;5.858;2022-09-03T05:10:43;4.83;;;3.37;;
31018;SDS011;17689;45.610;5.858;2022-09-03T05:13:09;3.90;;;3.23;;
31018;SDS011;17689;45.610;5.858;2022-09-03T05:15:35;4.57;;;3.27;;
31018;SDS011;17689;45.610;5.858;2022-09-03T05:18:02;4.37;;;3.33;;
31018;SDS011;17689;45.610;5.858;2022-09-03T05:20:28;7.63;;;3.27;;
31018;SDS011;17689;45.610;5.858;2022-09-03T05:22:55;5.10;;;3.03;;
31018;SDS011;17689;45.610;5.858;2022-09-03T05:25:22;4.47;;;3.27;;
31018;SDS011;17689;45.610;5.858;2022-09-03T05:27:49;4.53;;;3.40;;
31018;SDS011;17689;45.610;5.858;2022-09-03T05:30:15;4.00;;;3.43;;
31018;SDS011;17689;45.610;5.858;2022-09-03T05:32:41;4.80;;;2.87;;
31018;SDS011;17689;45.610;5.858;2022-09-03T05:35:08;4.23;;;3.20;;
31018;SDS011;17689;45.610;5.858;2022-09-03T05:37:35;6.93;;;3.30;;
31018;SDS011;17689;45.610;5.858;2022-09-03T05:40:02;4.67;;;3.30;;
31018;SDS011;17689;45.610;5.858;2022-09-03T05:42:28;3.63;;;3.00;;
31018;SDS011;17689;45.610;5.858;2022-09-03T05:44:59;3.57;;;3.10;;
31018;SDS011;17689;45.610;5.858;2022-09-03T05:47:25;5.63;;;3.00;;
31018;SDS011;17689;45.610;5.858;2022-09-03T05:49:51;3.60;;;3.10;;
31018;SDS011;17689;45.610;5.858;2022-09-03T05:52:17;6.30;;;3.27;;
31018;SDS011;17689;45.610;5.858;2022-09-03T05:54:45;4.10;;;3.10;;
31018;SDS011;17689;45.610;5.858;2022-09-03T05:57:12;3.50;;;3.20;;
31018;SDS011;17689;45.610;5.858;2022-09-03T05:59:38;4.83;;;3.00;;
31018;SDS011;17689;45.610;5.858;2022-09-03T06:02:04;5.17;;;3.23;;
31018;SDS011;17689;45.610;5.858;2022-09-03T06:04:30;3.50;;;2.97;;
31018;SDS011;17689;45.610;5.858;2022-09-03T06:06:57;6.13;;;3.03;;
31018;SDS011;17689;45.610;5.858;2022-09-03T06:09:23;4.13;;;2.80;;
31018;SDS011;17689;45.610;5.858;2022-09-03T06:11:50;6.97;;;3.00;;
31018;SDS011;17689;45.610;5.858;2022-09-03T06:14:18;4.27;;;2.83;;
31018;SDS011;17689;45.610;5.858;2022-09-03T06:16:44;3.30;;;2.80;;
31018;SDS011;17689;45.610;5.858;2022-09-03T06:19:13;3.67;;;3.07;;
31018;SDS011;17689;45.610;5.858;2022-09-03T06:21:42;5.30;;;3.13;;
31018;SDS011;17689;45.610;5.858;2022-09-03T06:24:10;4.37;;;2.73;;
31018;SDS011;17689;45.610;5.858;2022-09-03T06:26:36;3.40;;;2.70;;
31018;SDS011;17689;45.610;5.858;2022-09-03T06:29:03;3.17;;;2.87;;
31018;SDS011;17689;45.610;5.858;2022-09-03T06:31:29;3.10;;;2.80;;
31018;SDS011;17689;45.610;5.858;2022-09-03T06:33:56;3.47;;;3.03;;
31018;SDS011;17689;45.610;5.858;2022-09-03T06:36:22;6.53;;;3.03;;
31018;SDS011;17689;45.610;5.858;2022-09-03T06:38:51;3.20;;;2.90;;
31018;SDS011;17689;45.610;5.858;2022-09-03T06:41:18;3.43;;;2.70;;
31018;SDS011;17689;45.610;5.858;2022-09-03T06:43:45;4.37;;;3.00;;
31018;SDS011;17689;45.610;5.858;2022-09-03T06:46:15;3.00;;;2.70;;
31018;SDS011;17689;45.610;5.858;2022-09-03T06:48:42;4.67;;;2.80;;
31018;SDS011;17689;45.610;5.858;2022-09-03T06:51:12;4.50;;;2.97;;
31018;SDS011;17689;45.610;5.858;2022-09-03T06:53:40;3.27;;;2.90;;
31018;SDS011;17689;45.610;5.858;2022-09-03T06:56:07;3.20;;;2.90;;
31018;SDS011;17689;45.610;5.858;2022-09-03T06:58:37;4.93;;;2.87;;
31018;SDS011;17689;45.610;5.858;2022-09-03T07:01:08;3.20;;;2.90;;
31018;SDS011;17689;45.610;5.858;2022-09-03T07:03:34;4.47;;;2.80;;
31018;SDS011;17689;45.610;5.858;2022-09-03T07:06:05;4.50;;;2.70;;
31018;SDS011;17689;45.610;5.858;2022-09-03T07:08:32;3.20;;;2.80;;
31018;SDS011;17689;45.610;5.858;2022-09-03T07:10:59;3.97;;;2.80;;
31018;SDS011;17689;45.610;5.858;2022-09-03T07:13:28;4.87;;;2.77;;
31018;SDS011;17689;45.610;5.858;2022-09-03T07:15:58;5.63;;;2.70;;
31018;SDS011;17689;45.610;5.858;2022-09-03T07:18:24;3.33;;;2.50;;
31018;SDS011;17689;45.610;5.858;2022-09-03T07:20:50;5.60;;;2.60;;
31018;SDS011;17689;45.610;5.858;2022-09-03T07:23:16;4.63;;;2.67;;
31018;SDS011;17689;45.610;5.858;2022-09-03T07:28:37;3.70;;;2.53;;
31018;SDS011;17689;45.610;5.858;2022-09-03T07:31:08;6.80;;;3.20;;
31018;SDS011;17689;45.610;5.858;2022-09-03T07:33:36;3.93;;;2.87;;
31018;SDS011;17689;45.610;5.858;2022-09-03T07:36:06;4.13;;;2.33;;
31018;SDS011;17689;45.610;5.858;2022-09-03T07:38:33;3.07;;;2.63;;
31018;SDS011;17689;45.610;5.858;2022-09-03T07:41:00;3.23;;;2.30;;
31018;SDS011;17689;45.610;5.858;2022-09-03T07:43:28;3.83;;;2.47;;
31018;SDS011;17689;45.610;5.858;2022-09-03T07:45:54;2.40;;;2.20;;
31018;SDS011;17689;45.610;5.858;2022-09-03T07:48:22;4.47;;;2.20;;
31018;SDS011;17689;45.610;5.858;2022-09-03T07:50:48;3.90;;;2.30;;
31018;SDS011;17689;45.610;5.858;2022-09-03T07:53:15;4.13;;;2.33;;
31018;SDS011;17689;45.610;5.858;2022-09-03T07:55:42;3.03;;;2.30;;
31018;SDS011;17689;45.610;5.858;2022-09-03T07:58:09;4.00;;;2.47;;
31018;SDS011;17689;45.610;5.858;2022-09-03T08:00:36;3.30;;;2.07;;
31018;SDS011;17689;45.610;5.858;2022-09-03T08:03:03;2.50;;;2.10;;
31018;SDS011;17689;45.610;5.858;2022-09-03T08:05:33;3.40;;;2.20;;
31018;SDS011;17689;45.610;5.858;2022-09-03T08:08:01;3.00;;;2.20;;
31018;SDS011;17689;45.610;5.858;2022-09-03T08:10:27;2.87;;;2.07;;
31018;SDS011;17689;45.610;5.858;2022-09-03T08:12:58;2.93;;;2.00;;
31018;SDS011;17689;45.610;5.858;2022-09-03T08:15:24;2.73;;;2.43;;
31018;SDS011;17689;45.610;5.858;2022-09-03T08:17:51;4.97;;;2.30;;
31018;SDS011;17689;45.610;5.858;2022-09-03T08:20:18;3.70;;;2.20;;
31018;SDS011;17689;45.610;5.858;2022-09-03T08:22:44;3.17;;;2.10;;
31018;SDS011;17689;45.610;5.858;2022-09-03T08:25:10;3.30;;;2.17;;
31018;SDS011;17689;45.610;5.858;2022-09-03T08:27:37;4.63;;;2.20;;
31018;SDS011;17689;45.610;5.858;2022-09-03T08:30:04;2.93;;;2.40;;
31018;SDS011;17689;45.610;5.858;2022-09-03T08:32:33;3.17;;;1.90;;
31018;SDS011;17689;45.610;5.858;2022-09-03T08:34:59;5.57;;;2.20;;
31018;SDS011;17689;45.610;5.858;2022-09-03T08:37:26;3.60;;;2.30;;
31018;SDS011;17689;45.610;5.858;2022-09-03T08:39:53;2.43;;;2.23;;
31018;SDS011;17689;45.610;5.858;2022-09-03T08:45:21;3.03;;;2.07;;
31018;SDS011;17689;45.610;5.858;2022-09-03T08:47:49;2.20;;;2.00;;
31018;SDS011;17689;45.610;5.858;2022-09-03T08:50:35;3.20;;;1.93;;
31018;SDS011;17689;45.610;5.858;2022-09-03T08:55:58;3.97;;;2.10;;
31018;SDS011;17689;45.610;5.858;2022-09-03T08:58:28;2.30;;;2.10;;
31018;SDS011;17689;45.610;5.858;2022-09-03T09:03:51;3.63;;;2.23;;
31018;SDS011;17689;45.610;5.858;2022-09-03T09:22:21;2.93;;;2.20;;
31018;SDS011;17689;45.610;5.858;2022-09-03T09:24:22;3.70;;;2.23;;
31018;SDS011;17689;45.610;5.858;2022-09-03T09:27:00;3.50;;;2.20;;
31018;SDS011;17689;45.610;5.858;2022-09-03T09:29:30;2.30;;;2.10;;
31018;SDS011;17689;45.610;5.858;2022-09-03T09:31:57;3.80;;;2.40;;
31018;SDS011;17689;45.610;5.858;2022-09-03T09:34:23;2.33;;;2.10;;
31018;SDS011;17689;45.610;5.858;2022-09-03T09:36:52;2.87;;;2.40;;
31018;SDS011;17689;45.610;5.858;2022-09-03T09:39:19;2.80;;;2.37;;
31018;SDS011;17689;45.610;5.858;2022-09-03T09:42:01;3.07;;;2.57;;
31018;SDS011;17689;45.610;5.858;2022-09-03T09:44:32;3.60;;;2.50;;
31018;SDS011;17689;45.610;5.858;2022-09-03T09:47:03;4.50;;;2.47;;
31018;SDS011;17689;45.610;5.858;2022-09-03T09:49:37;3.87;;;2.47;;
31018;SDS011;17689;45.610;5.858;2022-09-03T09:52:12;3.90;;;2.30;;
31018;SDS011;17689;45.610;5.858;2022-09-03T09:54:40;3.10;;;2.47;;
31018;SDS011;17689;45.610;5.858;2022-09-03T09:57:12;2.30;;;2.10;;
31018;SDS011;17689;45.610;5.858;2022-09-03T09:59:41;2.40;;;2.20;;
31018;SDS011;17689;45.610;5.858;2022-09-03T10:02:13;3.77;;;2.63;;
31018;SDS011;17689;45.610;5.858;2022-09-03T10:04:40;2.83;;;2.53;;
31018;SDS011;17689;45.610;5.858;2022-09-03T10:09:43;3.50;;;2.70;;
31018;SDS011;17689;45.610;5.858;2022-09-03T10:12:16;2.70;;;2.50;;
31018;SDS011;17689;45.610;5.858;2022-09-03T10:17:56;2.80;;;2.60;;
31018;SDS011;17689;45.610;5.858;2022-09-03T10:25:42;4.43;;;2.77;;
31018;SDS011;17689;45.610;5.858;2022-09-03T10:28:14;4.73;;;2.60;;
31018;SDS011;17689;45.610;5.858;2022-09-03T10:33:26;4.03;;;3.10;;
31018;SDS011;17689;45.610;5.858;2022-09-03T10:36:09;4.30;;;2.63;;
31018;SDS011;17689;45.610;5.858;2022-09-03T10:38:36;3.13;;;2.83;;
31018;SDS011;17689;45.610;5.858;2022-09-03T10:46:15;3.20;;;2.87;;
31018;SDS011;17689;45.610;5.858;2022-09-03T10:51:20;4.53;;;2.90;;
31018;SDS011;17689;45.610;5.858;2022-09-03T10:56:23;3.20;;;2.90;;
31018;SDS011;17689;45.610;5.858;2022-09-03T11:01:25;3.20;;;2.90;;
31018;SDS011;17689;45.610;5.858;2022-09-03T11:06:23;3.93;;;2.77;;
31018;SDS011;17689;45.610;5.858;2022-09-03T11:08:56;5.77;;;3.00;;
31018;SDS011;17689;45.610;5.858;2022-09-03T11:13:55;3.43;;;2.70;;
31018;SDS011;17689;45.610;5.858;2022-09-03T11:16:25;4.40;;;2.70;;
31018;SDS011;17689;45.610;5.858;2022-09-03T11:19:04;3.10;;;2.80;;
31018;SDS011;17689;45.610;5.858;2022-09-03T11:21:31;5.33;;;2.70;;
31018;SDS011;17689;45.610;5.858;2022-09-03T11:24:04;4.23;;;2.90;;
31018;SDS011;17689;45.610;5.858;2022-09-03T11:26:33;3.57;;;2.80;;
31018;SDS011;17689;45.610;5.858;2022-09-03T11:29:09;3.30;;;3.00;;
31018;SDS011;17689;45.610;5.858;2022-09-03T11:36:40;5.70;;;3.20;;
31018;SDS011;17689;45.610;5.858;2022-09-03T11:39:19;2.90;;;2.60;;
31018;SDS011;17689;45.610;5.858;2022-09-03T11:42:00;3.87;;;2.80;;
31018;SDS011;17689;45.610;5.858;2022-09-03T11:44:49;4.07;;;2.70;;
31018;SDS011;17689;45.610;5.858;2022-09-03T11:47:20;3.63;;;2.70;;
31018;SDS011;17689;45.610;5.858;2022-09-03T11:49:48;5.43;;;2.40;;
31018;SDS011;17689;45.610;5.858;2022-09-03T11:52:24;4.97;;;2.90;;
31018;SDS011;17689;45.610;5.858;2022-09-03T11:54:50;4.03;;;2.97;;
31018;SDS011;17689;45.610;5.858;2022-09-03T11:57:29;4.47;;;2.90;;
31018;SDS011;17689;45.610;5.858;2022-09-03T12:00:09;4.50;;;2.90;;
31018;SDS011;17689;45.610;5.858;2022-09-03T12:02:41;3.60;;;2.73;;
31018;SDS011;17689;45.610;5.858;2022-09-03T12:13:11;4.97;;;3.00;;
31018;SDS011;17689;45.610;5.858;2022-09-03T12:18:12;4.00;;;2.90;;
31018;SDS011;17689;45.610;5.858;2022-09-03T12:25:55;4.77;;;2.97;;
31018;SDS011;17689;45.610;5.858;2022-09-03T12:28:23;4.97;;;3.10;;
31018;SDS011;17689;45.610;5.858;2022-09-03T12:30:49;4.50;;;2.90;;
31018;SDS011;17689;45.610;5.858;2022-09-03T12:33:17;4.43;;;3.03;;
31018;SDS011;17689;45.610;5.858;2022-09-03T12:35:54;5.17;;;3.33;;
31018;SDS011;17689;45.610;5.858;2022-09-03T12:38:24;5.47;;;3.17;;
31018;SDS011;17689;45.610;5.858;2022-09-03T12:40:50;3.40;;;2.80;;
31018;SDS011;17689;45.610;5.858;2022-09-03T12:43:17;3.53;;;2.70;;
31018;SDS011;17689;45.610;5.858;2022-09-03T12:45:47;3.10;;;2.80;;
31018;SDS011;17689;45.610;5.858;2022-09-03T12:48:15;3.37;;;2.70;;
31018;SDS011;17689;45.610;5.858;2022-09-03T12:50:42;3.40;;;2.70;;
31018;SDS011;17689;45.610;5.858;2022-09-03T12:53:10;3.53;;;2.80;;
31018;SDS011;17689;45.610;5.858;2022-09-03T12:55:48;3.97;;;2.60;;
31018;SDS011;17689;45.610;5.858;2022-09-03T12:58:16;4.00;;;2.67;;
31018;SDS011;17689;45.610;5.858;2022-09-03T13:00:45;4.10;;;2.90;;
31018;SDS011;17689;45.610;5.858;2022-09-03T13:03:24;3.77;;;2.80;;
31018;SDS011;17689;45.610;5.858;2022-09-03T13:05:57;3.60;;;3.00;;
31018;SDS011;17689;45.610;5.858;2022-09-03T13:08:31;4.83;;;2.93;;
31018;SDS011;17689;45.610;5.858;2022-09-03T13:10:59;4.40;;;3.10;;
31018;SDS011;17689;45.610;5.858;2022-09-03T13:13:30;3.83;;;2.97;;
31018;SDS011;17689;45.610;5.858;2022-09-03T13:26:30;4.57;;;3.03;;
31018;SDS011;17689;45.610;5.858;2022-09-03T13:31:45;3.27;;;2.93;;
31018;SDS011;17689;45.610;5.858;2022-09-03T13:34:15;4.97;;;3.40;;
31018;SDS011;17689;45.610;5.858;2022-09-03T13:36:49;3.17;;;2.77;;
31018;SDS011;17689;45.610;5.858;2022-09-03T13:42:05;4.33;;;3.10;;
31018;SDS011;17689;45.610;5.858;2022-09-03T13:44:47;3.77;;;2.80;;
31018;SDS011;17689;45.610;5.858;2022-09-03T13:47:23;4.17;;;2.90;;
31018;SDS011;17689;45.610;5.858;2022-09-03T13:55:30;3.80;;;3.00;;
31018;SDS011;17689;45.610;5.858;2022-09-03T14:03:24;4.30;;;2.90;;
31018;SDS011;17689;45.610;5.858;2022-09-03T14:18:50;4.60;;;3.20;;
31018;SDS011;17689;45.610;5.858;2022-09-03T14:21:21;4.07;;;3.20;;
31018;SDS011;17689;45.610;5.858;2022-09-03T14:26:35;3.73;;;3.17;;
31018;SDS011;17689;45.610;5.858;2022-09-03T14:34:20;3.63;;;2.97;;
31018;SDS011;17689;45.610;5.858;2022-09-03T14:39:53;4.10;;;3.13;;
31018;SDS011;17689;45.610;5.858;2022-09-03T14:47:23;3.43;;;2.80;;
31018;SDS011;17689;45.610;5.858;2022-09-03T14:50:13;4.03;;;2.93;;
31018;SDS011;17689;45.610;5.858;2022-09-03T14:52:51;3.83;;;2.90;;
31018;SDS011;17689;45.610;5.858;2022-09-03T14:55:23;4.80;;;3.30;;
31018;SDS011;17689;45.610;5.858;2022-09-03T15:00:20;3.63;;;3.20;;
31018;SDS011;17689;45.610;5.858;2022-09-03T15:08:07;4.83;;;3.10;;
31018;SDS011;17689;45.610;5.858;2022-09-03T15:10:41;4.97;;;3.10;;
31018;SDS011;17689;45.610;5.858;2022-09-03T15:13:20;5.73;;;3.80;;
31018;SDS011;17689;45.610;5.858;2022-09-03T15:33:39;5.23;;;3.37;;
31018;SDS011;17689;45.610;5.858;2022-09-03T15:36:12;4.80;;;3.70;;
31018;SDS011;17689;45.610;5.858;2022-09-03T15:38:58;4.20;;;3.53;;
31018;SDS011;17689;45.610;5.858;2022-09-03T15:41:39;3.77;;;3.07;;
31018;SDS011;17689;45.610;5.858;2022-09-03T15:44:07;5.23;;;3.60;;
31018;SDS011;17689;45.610;5.858;2022-09-03T15:46:37;4.40;;;2.97;;
31018;SDS011;17689;45.610;5.858;2022-09-03T15:49:17;4.87;;;2.90;;
31018;SDS011;17689;45.610;5.858;2022-09-03T15:54:21;4.70;;;3.10;;
31018;SDS011;17689;45.610;5.858;2022-09-03T15:56:57;4.03;;;3.47;;
31018;SDS011;17689;45.610;5.858;2022-09-03T15:59:29;4.10;;;3.30;;
31018;SDS011;17689;45.610;5.858;2022-09-03T16:02:14;4.63;;;3.30;;
31018;SDS011;17689;45.610;5.858;2022-09-03T16:15:23;4.27;;;3.53;;
31018;SDS011;17689;45.610;5.858;2022-09-03T16:20:19;4.47;;;3.10;;
31018;SDS011;17689;45.610;5.858;2022-09-03T16:23:00;3.83;;;3.10;;
31018;SDS011;17689;45.610;5.858;2022-09-03T16:28:18;4.43;;;3.00;;
31018;SDS011;17689;45.610;5.858;2022-09-03T16:36:25;3.07;;;2.83;;
31018;SDS011;17689;45.610;5.858;2022-09-03T16:41:28;4.27;;;3.00;;
31018;SDS011;17689;45.610;5.858;2022-09-03T16:52:05;3.90;;;3.10;;
31018;SDS011;17689;45.610;5.858;2022-09-03T16:59:50;3.87;;;3.07;;
31018;SDS011;17689;45.610;5.858;2022-09-03T17:02:29;3.53;;;3.00;;
31018;SDS011;17689;45.610;5.858;2022-09-03T17:05:22;3.53;;;3.20;;
31018;SDS011;17689;45.610;5.858;2022-09-03T17:07:59;4.23;;;2.93;;
31018;SDS011;17689;45.610;5.858;2022-09-03T17:13:28;4.23;;;2.80;;
31018;SDS011;17689;45.610;5.858;2022-09-03T17:16:07;4.57;;;3.30;;
31018;SDS011;17689;45.610;5.858;2022-09-03T17:21:37;4.73;;;3.10;;
31018;SDS011;17689;45.610;5.858;2022-09-03T17:24:13;4.03;;;2.70;;
31018;SDS011;17689;45.610;5.858;2022-09-03T17:26:46;4.43;;;2.77;;
31018;SDS011;17689;45.610;5.858;2022-09-03T17:29:34;3.53;;;2.50;;
31018;SDS011;17689;45.610;5.858;2022-09-03T17:35:05;3.00;;;2.47;;
31018;SDS011;17689;45.610;5.858;2022-09-03T17:37:28;3.20;;;2.50;;
31018;SDS011;17689;45.610;5.858;2022-09-03T17:40:02;3.03;;;2.37;;
31018;SDS011;17689;45.610;5.858;2022-09-03T17:45:08;2.53;;;2.20;;
31018;SDS011;17689;45.610;5.858;2022-09-03T17:55:23;2.73;;;2.10;;
31018;SDS011;17689;45.610;5.858;2022-09-03T17:57:58;2.63;;;2.20;;
31018;SDS011;17689;45.610;5.858;2022-09-03T18:03:31;2.43;;;2.07;;
31018;SDS011;17689;45.610;5.858;2022-09-03T18:06:08;2.63;;;2.00;;
31018;SDS011;17689;45.610;5.858;2022-09-03T18:08:43;2.67;;;2.30;;
31018;SDS011;17689;45.610;5.858;2022-09-03T18:11:26;3.57;;;2.27;;
31018;SDS011;17689;45.610;5.858;2022-09-03T18:18:56;2.27;;;2.03;;
31018;SDS011;17689;45.610;5.858;2022-09-03T18:21:24;2.70;;;2.37;;
31018;SDS011;17689;45.610;5.858;2022-09-03T18:27:15;3.23;;;2.20;;
31018;SDS011;17689;45.610;5.858;2022-09-03T18:30:05;4.80;;;2.43;;
31018;SDS011;17689;45.610;5.858;2022-09-03T18:32:51;3.33;;;2.47;;
31018;SDS011;17689;45.610;5.858;2022-09-03T18:35:36;3.77;;;2.30;;
31018;SDS011;17689;45.610;5.858;2022-09-03T18:38:25;4.23;;;2.70;;
31018;SDS011;17689;45.610;5.858;2022-09-03T18:44:21;5.60;;;2.73;;
31018;SDS011;17689;45.610;5.858;2022-09-03T18:52:47;4.97;;;2.73;;
31018;SDS011;17689;45.610;5.858;2022-09-03T18:55:37;3.73;;;2.83;;
31018;SDS011;17689;45.610;5.858;2022-09-03T18:58:29;4.40;;;2.90;;
31018;SDS011;17689;45.610;5.858;2022-09-03T19:01:37;7.40;;;2.90;;
31018;SDS011;17689;45.610;5.858;2022-09-03T19:07:10;4.37;;;3.27;;
31018;SDS011;17689;45.610;5.858;2022-09-03T19:15:29;5.40;;;3.50;;
31018;SDS011;17689;45.610;5.858;2022-09-03T19:24:04;6.80;;;3.33;;
31018;SDS011;17689;45.610;5.858;2022-09-03T19:26:56;7.70;;;3.60;;
31018;SDS011;17689;45.610;5.858;2022-09-03T19:36:03;4.60;;;3.00;;
31018;SDS011;17689;45.610;5.858;2022-09-03T19:47:30;6.30;;;3.70;;
31018;SDS011;17689;45.610;5.858;2022-09-03T19:50:23;7.90;;;3.50;;
31018;SDS011;17689;45.610;5.858;2022-09-03T19:53:14;6.03;;;3.30;;
31018;SDS011;17689;45.610;5.858;2022-09-03T19:56:06;5.80;;;3.43;;
31018;SDS011;17689;45.610;5.858;2022-09-03T19:58:57;4.00;;;3.43;;
31018;SDS011;17689;45.610;5.858;2022-09-03T20:01:43;3.67;;;3.23;;
31018;SDS011;17689;45.610;5.858;2022-09-03T20:04:30;5.80;;;3.70;;
31018;SDS011;17689;45.610;5.858;2022-09-03T20:07:15;5.30;;;3.83;;
31018;SDS011;17689;45.610;5.858;2022-09-03T20:10:01;8.60;;;3.80;;
31018;SDS011;17689;45.610;5.858;2022-09-03T20:12:48;5.00;;;3.53;;
31018;SDS011;17689;45.610;5.858;2022-09-03T20:15:15;5.13;;;3.63;;
31018;SDS011;17689;45.610;5.858;2022-09-03T20:20:30;5.77;;;3.50;;
31018;SDS011;17689;45.610;5.858;2022-09-03T20:23:15;5.37;;;3.30;;
31018;SDS011;17689;45.610;5.858;2022-09-03T20:28:17;6.43;;;3.50;;
31018;SDS011;17689;45.610;5.858;2022-09-03T20:31:00;4.67;;;3.13;;